createdAt,value
2022-08-21T04:09:22.199Z,23.30
2022-08-21T04:11:48.706Z,23.23
2022-08-21T04:14:16.291Z,23.21
2022-08-21T04:16:44.091Z,23.19
2022-08-21T04:19:11.935Z,23.16
2022-08-21T04:21:38.816Z,23.16
2022-08-21T04:24:06.824Z,23.15
2022-08-21T04:26:35.299Z,23.15
2022-08-21T04:29:02.369Z,23.15
2022-08-21T04:31:29.641Z,23.14
2022-08-21T04:33:57.687Z,23.12
2022-08-21T04:36:24.567Z,23.14
2022-08-21T04:38:52.583Z,23.14
2022-08-21T04:41:28.102Z,23.13
2022-08-21T04:43:56.217Z,23.11
2022-08-21T04:46:23.899Z,23.11
2022-08-21T04:48:50.611Z,23.11
2022-08-21T04:51:26.640Z,23.19
2022-08-21T04:54:00.185Z,23.18
2022-08-21T04:56:32.309Z,23.15
2022-08-21T04:59:04.141Z,23.12
2022-08-21T05:01:33.649Z,23.11
2022-08-21T05:04:01.845Z,23.10
2022-08-21T05:06:31.457Z,23.13
2022-08-21T05:09:02.037Z,23.11
2022-08-21T05:11:31.497Z,23.13
2022-08-21T05:13:58.237Z,23.13
2022-08-21T05:16:37.321Z,23.14
2022-08-21T05:19:07.718Z,23.15
2022-08-21T05:21:39.657Z,23.22
2022-08-21T05:24:06.384Z,23.19
2022-08-21T05:26:33.678Z,23.20
2022-08-21T05:29:12.344Z,23.19
2022-08-21T05:31:40.011Z,23.19
2022-08-21T05:34:06.625Z,23.20
2022-08-21T05:36:33.371Z,23.20
2022-08-21T05:38:59.894Z,23.21
2022-08-21T05:41:26.446Z,23.21
2022-08-21T05:43:52.952Z,23.21
2022-08-21T05:46:19.686Z,23.22
2022-08-21T05:48:46.210Z,23.23
2022-08-21T05:51:14.872Z,23.26
2022-08-21T05:53:43.192Z,23.27
2022-08-21T05:56:11.495Z,23.28
2022-08-21T05:58:38.011Z,23.31
2022-08-21T06:01:05.342Z,23.33
2022-08-21T06:03:35.327Z,23.37
2022-08-21T06:06:02.940Z,23.37
2022-08-21T06:08:30.488Z,23.38
2022-08-21T06:10:59.655Z,23.42
2022-08-21T06:13:27.304Z,23.40
2022-08-21T06:16:16.250Z,23.55
2022-08-21T06:18:45.182Z,23.42
2022-08-21T06:21:12.688Z,23.42
2022-08-21T06:23:39.347Z,23.45
2022-08-21T06:26:08.060Z,23.47
2022-08-21T06:28:35.695Z,23.50
2022-08-21T06:31:02.319Z,23.54
2022-08-21T06:33:32.527Z,23.58
2022-08-21T06:35:59.505Z,23.62
2022-08-21T06:38:26.029Z,23.65
2022-08-21T06:40:53.184Z,23.66
2022-08-21T06:43:19.935Z,23.66
2022-08-21T06:45:46.688Z,23.65
2022-08-21T06:48:18.334Z,23.65
2022-08-21T06:50:46.067Z,23.64
2022-08-21T06:53:14.883Z,23.63
2022-08-21T06:55:43.166Z,23.63
2022-08-21T06:58:10.291Z,23.63
2022-08-21T07:00:40.753Z,23.71
2022-08-21T07:03:07.677Z,23.73
2022-08-21T07:05:34.369Z,23.79
2022-08-21T07:08:00.912Z,23.83
2022-08-21T07:10:27.883Z,23.86
2022-08-21T07:13:01.095Z,23.90
2022-08-21T07:15:30.549Z,23.93
2022-08-21T07:17:58.275Z,23.97
2022-08-21T07:20:25.089Z,24.01
2022-08-21T07:22:51.963Z,24.05
2022-08-21T07:25:18.704Z,24.09
2022-08-21T07:27:45.423Z,24.13
2022-08-21T07:30:12.287Z,24.16
2022-08-21T07:32:39.048Z,24.22
2022-08-21T07:35:06.112Z,24.26
2022-08-21T07:37:32.746Z,24.30
2022-08-21T07:39:59.387Z,24.34
2022-08-21T07:42:26.163Z,24.38
2022-08-21T07:44:56.564Z,24.45
2022-08-21T07:47:42.464Z,24.49
2022-08-21T07:50:13.485Z,24.57
2022-08-21T07:52:41.425Z,24.61
2022-08-21T07:55:11.001Z,24.69
2022-08-21T07:57:37.933Z,24.76
2022-08-21T08:00:09.897Z,24.82
2022-08-21T08:02:36.538Z,24.88
2022-08-21T08:05:05.833Z,24.96
2022-08-21T08:07:32.881Z,25.00
2022-08-21T08:09:59.571Z,25.06
2022-08-21T08:12:30.515Z,25.13
2022-08-21T08:14:58.914Z,25.20
2022-08-21T08:17:26.266Z,25.29
2022-08-21T08:19:52.839Z,25.39
2022-08-21T08:22:24.464Z,25.49
2022-08-21T08:24:52.799Z,25.60
2022-08-21T08:27:19.428Z,25.70
2022-08-21T08:29:46.350Z,25.80
2022-08-21T08:32:13.823Z,25.85
2022-08-21T08:34:40.870Z,25.93
2022-08-21T08:37:10.690Z,26.00
2022-08-21T08:39:37.759Z,26.06
2022-08-21T08:42:33.886Z,26.21
2022-08-21T08:45:12.111Z,26.36
2022-08-21T08:47:47.646Z,26.50
2022-08-21T08:50:22.528Z,26.65
2022-08-21T08:52:55.134Z,26.75
2022-08-21T08:55:27.558Z,26.90
2022-08-21T08:57:56.032Z,27.03
2022-08-21T09:00:25.492Z,27.19
2022-08-21T09:02:59.884Z,27.30
2022-08-21T09:05:31.766Z,27.33
2022-08-21T09:08:30.903Z,27.48
2022-08-21T09:11:03.728Z,27.48
2022-08-21T09:13:48.107Z,27.57
2022-08-21T09:16:36.220Z,27.59
2022-08-21T09:19:12.979Z,27.69
2022-08-21T09:22:00.701Z,27.84
2022-08-21T09:24:38.935Z,27.92
2022-08-21T09:27:09.973Z,27.96
2022-08-21T09:29:42.575Z,28.02
2022-08-21T09:32:19.533Z,28.12
2022-08-21T09:35:08.803Z,28.22
2022-08-21T09:38:12.031Z,28.26
2022-08-21T09:40:42.249Z,28.38
2022-08-21T09:43:14.894Z,28.48
2022-08-21T09:45:43.098Z,28.51
2022-08-21T09:48:10.809Z,28.59
2022-08-21T09:50:37.748Z,28.66
2022-08-21T09:53:04.340Z,28.73
2022-08-21T09:56:06.016Z,28.83
2022-08-21T09:58:36.585Z,28.94
2022-08-21T10:01:05.327Z,28.99
2022-08-21T10:03:32.604Z,29.04
2022-08-21T10:06:06.540Z,29.09
2022-08-21T10:08:38.388Z,29.05
2022-08-21T10:11:15.269Z,29.13
2022-08-21T10:13:52.153Z,29.11
2022-08-21T10:16:43.391Z,29.16
2022-08-21T10:19:12.551Z,29.18
2022-08-21T10:21:39.044Z,29.26
2022-08-21T10:24:30.888Z,29.41
2022-08-21T10:27:22.360Z,29.46
2022-08-21T10:30:00.710Z,29.54
2022-08-21T10:33:04.458Z,29.65
2022-08-21T10:35:37.859Z,29.68
2022-08-21T10:38:39.362Z,29.76
2022-08-21T10:41:43.230Z,29.88
2022-08-21T10:44:15.749Z,29.78
2022-08-21T10:46:58.878Z,29.88
2022-08-21T10:49:43.306Z,29.83
2022-08-21T10:52:32.881Z,29.94
2022-08-21T10:55:13.705Z,29.99
2022-08-21T10:57:59.107Z,30.12
2022-08-21T11:00:49.489Z,30.33
2022-08-21T11:03:36.258Z,30.47
2022-08-21T11:06:26.235Z,30.55
2022-08-21T11:08:58.448Z,30.51
2022-08-21T11:11:35.773Z,30.58
2022-08-21T11:14:09.285Z,30.72
2022-08-21T11:16:57.870Z,30.86
2022-08-21T11:19:31.690Z,30.90
2022-08-21T11:22:16.766Z,31.08
2022-08-21T11:24:48.610Z,31.14
2022-08-21T11:27:24.166Z,31.19
2022-08-21T11:29:58.872Z,31.21
2022-08-21T11:33:00.002Z,31.28
2022-08-21T11:36:14.419Z,31.28
2022-08-21T11:38:43.594Z,31.15
2022-08-21T11:41:29.674Z,31.25
2022-08-21T11:44:05.738Z,31.25
2022-08-21T11:46:37.359Z,31.34
2022-08-21T11:49:06.466Z,31.43
2022-08-21T11:51:53.591Z,31.66
2022-08-21T11:54:35.114Z,31.80
2022-08-21T11:57:07.607Z,31.83
2022-08-21T11:59:44.911Z,31.95
2022-08-21T12:02:16.219Z,32.03
2022-08-21T12:04:48.991Z,32.10
2022-08-21T12:07:30.337Z,32.19
2022-08-21T12:09:58.876Z,32.27
2022-08-21T12:12:34.845Z,32.35
2022-08-21T12:15:22.893Z,32.52
2022-08-21T12:18:29.690Z,32.64
2022-08-21T12:20:59.203Z,32.63
2022-08-21T12:23:29.443Z,32.65
2022-08-21T12:26:23.480Z,32.78
2022-08-21T12:28:50.132Z,32.83
2022-08-21T12:31:25.149Z,32.96
2022-08-21T12:33:59.336Z,33.09
2022-08-21T12:36:40.962Z,33.19
2022-08-21T12:39:14.861Z,33.31
2022-08-21T12:42:02.013Z,33.39
2022-08-21T12:44:54.776Z,33.51
2022-08-21T12:47:56.217Z,33.52
2022-08-21T12:50:34.184Z,33.47
2022-08-21T12:53:18.506Z,33.45
2022-08-21T12:55:47.686Z,33.39
2022-08-21T12:58:25.536Z,33.48
2022-08-21T13:01:02.425Z,33.49
2022-08-21T13:03:29.936Z,33.54
2022-08-21T13:05:56.722Z,33.61
2022-08-21T13:08:25.921Z,33.69
2022-08-21T13:11:13.582Z,33.79
2022-08-21T13:13:47.005Z,33.76
2022-08-21T13:16:23.348Z,33.78
2022-08-21T13:19:12.296Z,33.82
2022-08-21T13:21:43.965Z,33.68
2022-08-21T13:24:41.355Z,33.66
2022-08-21T13:27:19.268Z,33.66
2022-08-21T13:29:48.404Z,33.57
2022-08-21T13:32:26.569Z,33.55
2022-08-21T13:34:54.006Z,33.48
2022-08-21T13:37:24.199Z,33.48
2022-08-21T13:39:53.085Z,33.45
2022-08-21T13:42:20.309Z,33.44
2022-08-21T13:44:48.834Z,33.45
2022-08-21T13:47:18.114Z,33.49
2022-08-21T13:49:47.800Z,33.53
2022-08-21T13:52:17.692Z,33.56
2022-08-21T13:54:45.798Z,33.60
2022-08-21T13:57:40.171Z,33.74
2022-08-21T14:00:25.888Z,33.89
2022-08-21T14:02:55.322Z,33.94
2022-08-21T14:05:33.856Z,34.11
2022-08-21T14:08:15.598Z,34.26
2022-08-21T14:10:45.841Z,34.36
2022-08-21T14:13:43.437Z,34.58
2022-08-21T14:16:21.438Z,34.63
2022-08-21T14:18:54.137Z,34.64
2022-08-21T14:21:49.897Z,34.78
2022-08-21T14:24:31.351Z,34.65
2022-08-21T14:27:06.445Z,34.45
2022-08-21T14:29:38.441Z,34.35
2022-08-21T14:32:38.515Z,34.39
2022-08-21T14:35:11.999Z,34.07
2022-08-21T14:37:38.558Z,34.05
2022-08-21T14:40:06.295Z,34.05
2022-08-21T14:42:33.390Z,34.00
2022-08-21T14:45:11.958Z,33.97
2022-08-21T14:47:38.537Z,33.83
2022-08-21T14:50:05.277Z,33.67
2022-08-21T14:52:31.783Z,33.54
2022-08-21T14:54:58.460Z,33.43
2022-08-21T14:57:28.708Z,33.35
2022-08-21T14:59:59.977Z,33.26
2022-08-21T15:02:28.153Z,33.21
2022-08-21T15:04:54.830Z,33.18
2022-08-21T15:07:21.341Z,33.13
2022-08-21T15:09:47.853Z,33.09
2022-08-21T15:12:15.741Z,33.08
2022-08-21T15:14:42.860Z,33.06
2022-08-21T15:17:10.977Z,33.07
2022-08-21T15:19:38.244Z,33.09
2022-08-21T15:22:05.373Z,33.11
2022-08-21T15:24:32.689Z,33.15
2022-08-21T15:27:02.514Z,33.22
2022-08-21T15:29:33.477Z,33.24
2022-08-21T15:32:03.363Z,33.31
2022-08-21T15:34:31.560Z,33.29
2022-08-21T15:36:58.898Z,33.24
2022-08-21T15:39:31.052Z,33.16
2022-08-21T15:41:58.634Z,33.12
2022-08-21T15:44:26.834Z,33.11
2022-08-21T15:46:53.343Z,33.07
2022-08-21T15:49:20.034Z,33.04
2022-08-21T15:51:46.555Z,32.97
2022-08-21T15:54:13.054Z,32.91
2022-08-21T15:56:41.840Z,32.85
2022-08-21T15:59:15.773Z,32.87
2022-08-21T16:01:44.898Z,32.76
2022-08-21T16:04:17.150Z,32.73
2022-08-21T16:06:54.179Z,32.61
2022-08-21T16:09:24.363Z,32.55
2022-08-21T16:11:51.854Z,32.47
2022-08-21T16:14:18.866Z,32.42
2022-08-21T16:16:45.597Z,32.40
2022-08-21T16:19:13.477Z,32.37
2022-08-21T16:21:40.174Z,32.38
2022-08-21T16:24:07.069Z,32.37
2022-08-21T16:26:34.048Z,32.37
2022-08-21T16:29:03.089Z,32.38
2022-08-21T16:31:31.761Z,32.37
2022-08-21T16:33:58.888Z,32.35
2022-08-21T16:36:28.823Z,32.31
2022-08-21T16:38:56.821Z,32.27
2022-08-21T16:41:27.258Z,32.21
2022-08-21T16:43:53.942Z,32.12
2022-08-21T16:46:22.012Z,32.04
2022-08-21T16:48:50.171Z,31.93
2022-08-21T16:51:16.932Z,31.84
2022-08-21T16:53:43.727Z,31.77
2022-08-21T16:56:12.532Z,31.71
2022-08-21T16:58:41.468Z,31.66
2022-08-21T17:01:12.181Z,31.64
2022-08-21T17:03:45.819Z,31.55
2022-08-21T17:06:14.426Z,31.50
2022-08-21T17:08:41.385Z,31.44
2022-08-21T17:11:35.386Z,31.56
2022-08-21T17:14:09.199Z,31.44
2022-08-21T17:16:35.916Z,31.32
2022-08-21T17:19:02.424Z,31.26
2022-08-21T17:21:28.961Z,31.20
2022-08-21T17:23:55.660Z,31.13
2022-08-21T17:26:23.188Z,31.08
2022-08-21T17:28:54.259Z,31.02
2022-08-21T17:31:21.501Z,30.97
2022-08-21T17:33:52.922Z,30.93
2022-08-21T17:36:21.515Z,30.85
2022-08-21T17:38:48.593Z,30.79
2022-08-21T17:41:16.236Z,30.74
2022-08-21T17:43:43.023Z,30.69
2022-08-21T17:46:15.017Z,30.69
2022-08-21T17:48:41.533Z,30.59
2022-08-21T17:51:14.553Z,30.54
2022-08-21T17:53:41.217Z,30.48
2022-08-21T17:56:08.509Z,30.43
2022-08-21T17:58:35.586Z,30.38
2022-08-21T18:01:04.036Z,30.32
2022-08-21T18:03:30.683Z,30.27
2022-08-21T18:06:04.032Z,30.23
2022-08-21T18:08:32.090Z,30.18
2022-08-21T18:10:59.174Z,30.13
2022-08-21T18:13:29.191Z,30.06
2022-08-21T18:15:57.799Z,29.98
2022-08-21T18:18:26.320Z,29.91
2022-08-21T18:20:53.710Z,29.82
2022-08-21T18:23:20.244Z,29.73
2022-08-21T18:26:07.576Z,29.67
2022-08-21T18:28:38.761Z,29.60
2022-08-21T18:31:08.719Z,29.52
2022-08-21T18:33:36.443Z,29.39
2022-08-21T18:36:04.612Z,29.32
2022-08-21T18:38:31.455Z,29.27
2022-08-21T18:40:59.785Z,29.20
2022-08-21T18:43:26.827Z,29.14
2022-08-21T18:45:54.160Z,29.10
2022-08-21T18:48:20.863Z,29.04
2022-08-21T18:50:49.757Z,28.98
2022-08-21T18:58:57.565Z,28.93
2022-08-21T19:01:25.480Z,28.81
2022-08-21T19:03:52.077Z,28.75
2022-08-21T19:06:18.594Z,28.66
2022-08-21T19:08:45.136Z,28.57
2022-08-21T19:11:12.384Z,28.51
2022-08-21T19:13:39.451Z,28.41
2022-08-21T19:18:53.324Z,28.31
2022-08-21T19:21:22.729Z,28.23
2022-08-21T19:23:52.549Z,28.17
2022-08-21T19:26:25.689Z,28.11
2022-08-21T19:28:55.493Z,28.08
2022-08-21T19:31:29.699Z,28.05
2022-08-21T19:34:15.794Z,28.11
2022-08-21T19:36:42.995Z,27.97
2022-08-21T19:39:11.110Z,27.93
2022-08-21T19:41:41.926Z,27.92
2022-08-21T19:44:13.457Z,27.89
2022-08-21T19:46:43.405Z,27.86
2022-08-21T19:49:13.984Z,27.88
2022-08-21T19:51:41.285Z,27.80
2022-08-21T19:54:37.659Z,28.03
2022-08-21T19:57:06.890Z,27.77
2022-08-21T19:59:35.607Z,27.74
2022-08-21T20:02:02.570Z,27.69
2022-08-21T20:04:29.192Z,27.66
2022-08-21T20:06:55.722Z,27.62
2022-08-21T20:09:22.650Z,27.59
2022-08-21T20:11:55.967Z,27.64
2022-08-21T20:14:26.906Z,27.58
2022-08-21T20:17:05.847Z,27.57
2022-08-21T20:19:32.435Z,27.46
2022-08-21T20:21:59.510Z,27.42
2022-08-21T20:24:27.407Z,27.38
2022-08-21T20:26:54.927Z,27.34
2022-08-21T20:29:23.913Z,27.30
2022-08-21T20:31:52.915Z,27.27
2022-08-21T20:34:19.760Z,27.24
2022-08-21T20:36:47.443Z,27.21
2022-08-21T20:39:14.318Z,27.16
2022-08-21T20:41:41.733Z,27.12
2022-08-21T20:44:12.705Z,27.12
2022-08-21T20:46:39.862Z,27.04
2022-08-21T20:49:09.234Z,27.00
2022-08-21T20:51:40.386Z,27.01
2022-08-21T20:54:30.294Z,27.12
2022-08-21T20:57:21.887Z,27.09
2022-08-21T20:59:55.604Z,26.94
2022-08-21T21:02:44.422Z,26.85
2022-08-21T21:09:03.886Z,27.00
2022-08-21T21:11:39.851Z,26.75
2022-08-21T21:14:16.989Z,26.71
2022-08-21T21:17:03.306Z,26.63
2022-08-21T21:19:54.127Z,26.74
2022-08-21T21:22:26.318Z,26.57
2022-08-21T21:25:01.255Z,26.53
2022-08-21T21:27:49.243Z,26.47
2022-08-21T21:30:29.679Z,26.48
2022-08-21T21:32:56.940Z,26.34
2022-08-21T21:39:07.535Z,26.44
2022-08-21T21:41:49.240Z,26.32
2022-08-21T21:44:26.953Z,26.25
2022-08-21T21:47:31.998Z,26.40
2022-08-21T21:50:26.738Z,26.20
2022-08-21T21:53:05.143Z,26.13
2022-08-21T21:55:48.043Z,26.11
2022-08-21T21:58:20.667Z,26.04
2022-08-21T22:01:34.958Z,26.00
2022-08-21T22:04:06.075Z,25.88
2022-08-21T22:06:51.249Z,25.95
2022-08-21T22:09:20.800Z,25.83
2022-08-21T22:11:58.363Z,25.75
2022-08-21T22:14:34.503Z,25.77
2022-08-21T22:17:23.554Z,25.77
2022-08-21T22:19:54.431Z,25.69
2022-08-21T22:22:24.741Z,25.64
2022-08-21T22:25:00.953Z,25.67
2022-08-21T22:27:38.175Z,25.66
2022-08-21T22:30:10.764Z,25.59
2022-08-21T22:32:50.310Z,25.49
2022-08-21T22:35:24.320Z,25.52
2022-08-21T22:37:57.636Z,25.46
2022-08-21T22:40:31.570Z,25.48
2022-08-21T22:43:07.788Z,25.44
2022-08-21T22:46:05.844Z,25.57
2022-08-21T22:48:37.000Z,25.36
2022-08-21T22:51:07.595Z,25.30
2022-08-21T22:53:37.732Z,25.28
2022-08-21T22:56:06.664Z,25.24
2022-08-21T22:58:38.380Z,25.24
2022-08-21T23:01:23.559Z,25.17
2022-08-21T23:03:57.126Z,25.16
2022-08-21T23:06:29.610Z,25.18
2022-08-21T23:08:56.202Z,25.09
